createdAt,value
2022-08-28T00:00:39.081Z,41.96
2022-08-28T00:03:07.907Z,42.23
2022-08-28T00:05:35.396Z,42.04
2022-08-28T00:08:02.911Z,41.92
2022-08-28T00:10:30.480Z,41.67
2022-08-28T00:17:05.912Z,41.62
2022-08-28T00:19:38.428Z,41.27
2022-08-28T00:22:07.595Z,41.10
2022-08-28T00:24:38.525Z,41.13
2022-08-28T00:27:24.916Z,41.06
2022-08-28T00:29:52.402Z,41.27
2022-08-28T00:32:22.622Z,40.95
2022-08-28T00:36:05.794Z,40.70
2022-08-28T00:38:33.288Z,41.02
2022-08-28T00:41:04.914Z,40.79
2022-08-28T00:43:35.266Z,41.17
2022-08-28T00:46:18.930Z,41.52
2022-08-28T00:48:47.008Z,40.95
2022-08-28T00:51:36.863Z,40.80
2022-08-28T00:54:07.711Z,41.33
2022-08-28T00:56:38.376Z,41.01
2022-08-28T00:59:09.680Z,41.34
2022-08-28T01:01:39.476Z,40.79
2022-08-28T01:04:09.733Z,40.68
2022-08-28T01:06:37.899Z,41.27
2022-08-28T01:09:06.612Z,40.84
2022-08-28T01:11:34.446Z,41.18
2022-08-28T01:14:02.965Z,41.17
2022-08-28T01:16:33.768Z,41.28
2022-08-28T01:19:05.007Z,41.27
2022-08-28T01:21:56.533Z,40.86
2022-08-28T01:24:29.313Z,41.21
2022-08-28T01:26:56.557Z,41.20
2022-08-28T01:29:24.533Z,41.25
2022-08-28T01:31:51.886Z,41.10
2022-08-28T01:34:20.381Z,41.41
2022-08-28T01:36:48.737Z,41.16
2022-08-28T01:39:22.660Z,41.38
2022-08-28T01:41:55.748Z,41.71
2022-08-28T01:44:27.306Z,42.33
2022-08-28T01:46:57.515Z,41.61
2022-08-28T01:49:26.010Z,42.10
2022-08-28T01:51:54.753Z,42.32
2022-08-28T01:55:39.161Z,42.86
2022-08-28T01:58:07.901Z,42.27
2022-08-28T02:00:36.082Z,42.98
2022-08-28T02:03:04.385Z,42.60
2022-08-28T02:05:33.380Z,42.87
2022-08-28T02:08:03.012Z,43.01
2022-08-28T02:10:33.489Z,43.41
2022-08-28T02:13:02.039Z,43.15
2022-08-28T02:15:32.425Z,43.47
2022-08-28T02:18:02.313Z,43.64
2022-08-28T02:20:29.978Z,43.69
2022-08-28T02:22:58.840Z,43.69
2022-08-28T02:25:27.830Z,43.96
2022-08-28T02:27:58.352Z,43.77
2022-08-28T02:30:26.211Z,43.55
2022-08-28T02:32:54.134Z,43.99
2022-08-28T02:35:24.509Z,44.39
2022-08-28T02:37:54.491Z,44.22
2022-08-28T02:40:24.896Z,44.50
2022-08-28T02:42:52.665Z,44.41
2022-08-28T02:45:20.944Z,44.39
2022-08-28T02:47:48.652Z,44.81
2022-08-28T02:50:17.930Z,44.40
2022-08-28T02:52:45.251Z,44.98
2022-08-28T02:55:15.402Z,45.17
2022-08-28T02:57:43.051Z,44.91
2022-08-28T03:00:14.595Z,45.38
2022-08-28T03:02:46.405Z,45.52
2022-08-28T03:05:16.563Z,44.99
2022-08-28T03:07:44.259Z,45.12
2022-08-28T03:10:12.025Z,45.20
2022-08-28T03:12:39.762Z,45.55
2022-08-28T03:15:08.027Z,45.29
2022-08-28T03:17:39.806Z,45.28
2022-08-28T03:20:12.271Z,45.14
2022-08-28T03:23:00.719Z,45.55
2022-08-28T03:25:29.008Z,45.85
2022-08-28T03:27:56.798Z,45.35
2022-08-28T03:30:29.513Z,45.75
2022-08-28T03:33:25.643Z,46.10
2022-08-28T03:35:54.047Z,45.60
2022-08-28T03:38:22.730Z,46.06
2022-08-28T03:40:53.783Z,46.35
2022-08-28T03:43:24.924Z,46.54
2022-08-28T03:45:59.086Z,46.62
2022-08-28T03:48:29.118Z,46.31
2022-08-28T03:50:57.006Z,46.56
2022-08-28T03:53:29.400Z,46.61
2022-08-28T03:55:58.489Z,46.16
2022-08-28T03:58:26.831Z,46.40
2022-08-28T04:00:55.717Z,46.29
2022-08-28T04:03:27.127Z,46.53
2022-08-28T04:05:54.749Z,46.11
2022-08-28T04:08:23.763Z,46.56
2022-08-28T04:10:52.109Z,46.51
2022-08-28T04:13:21.659Z,46.01
2022-08-28T04:16:10.908Z,46.28
2022-08-28T04:18:40.384Z,46.05
2022-08-28T04:21:13.640Z,46.59
2022-08-28T04:23:43.796Z,46.09
2022-08-28T04:26:18.595Z,46.85
2022-08-28T04:28:47.056Z,46.21
2022-08-28T04:31:15.199Z,46.58
2022-08-28T04:33:44.116Z,47.55
2022-08-28T04:36:16.394Z,46.99
2022-08-28T04:38:44.306Z,46.76
2022-08-28T04:41:14.594Z,47.39
2022-08-28T04:43:44.489Z,47.39
2022-08-28T04:46:14.425Z,47.16
2022-08-28T04:48:44.642Z,47.11
2022-08-28T04:51:15.273Z,47.11
2022-08-28T04:53:43.786Z,47.29
2022-08-28T04:56:13.529Z,47.30
2022-08-28T04:58:42.459Z,47.29
2022-08-28T05:01:14.370Z,47.03
2022-08-28T05:03:42.018Z,46.87
2022-08-28T05:06:09.573Z,46.69
2022-08-28T05:08:36.964Z,46.69
2022-08-28T05:11:22.071Z,46.69
2022-08-28T05:14:13.917Z,46.80
2022-08-28T05:16:46.367Z,46.59
2022-08-28T05:19:15.691Z,46.45
2022-08-28T05:21:42.986Z,46.89
2022-08-28T05:24:11.119Z,46.88
2022-08-28T05:26:40.090Z,46.46
2022-08-28T05:29:11.416Z,45.94
2022-08-28T05:31:41.713Z,46.06
2022-08-28T05:34:12.095Z,46.36
2022-08-28T05:36:48.954Z,45.85
2022-08-28T05:39:20.029Z,46.11
2022-08-28T05:41:57.835Z,45.79
2022-08-28T05:44:28.859Z,45.91
2022-08-28T05:46:56.862Z,45.77
2022-08-28T05:49:25.538Z,45.27
2022-08-28T05:51:52.994Z,44.86
2022-08-28T05:54:20.632Z,44.89
2022-08-28T05:56:48.294Z,44.61
2022-08-28T05:59:18.787Z,44.54
2022-08-28T06:01:49.799Z,44.49
2022-08-28T06:04:41.692Z,44.51
2022-08-28T06:07:16.067Z,44.62
2022-08-28T06:10:07.780Z,43.50
2022-08-28T06:12:43.854Z,43.79
2022-08-28T06:15:16.837Z,43.57
2022-08-28T06:17:46.698Z,43.71
2022-08-28T06:20:19.646Z,43.63
2022-08-28T06:22:49.840Z,43.25
2022-08-28T06:25:20.637Z,41.11
2022-08-28T06:27:52.921Z,39.07
2022-08-28T06:31:08.874Z,37.53
2022-08-28T06:33:30.022Z,34.14
2022-08-28T06:36:12.779Z,32.81
2022-08-28T06:38:46.963Z,32.64
2022-08-28T06:41:35.929Z,31.14
2022-08-28T06:44:09.104Z,31.02
2022-08-28T06:47:23.548Z,29.88
2022-08-28T06:50:10.937Z,30.69
2022-08-28T06:52:41.734Z,31.71
2022-08-28T06:55:09.624Z,32.23
2022-08-28T06:57:37.338Z,32.81
2022-08-28T07:00:05.711Z,32.85
2022-08-28T07:02:34.236Z,33.27
2022-08-28T07:05:01.852Z,33.40
2022-08-28T07:07:31.489Z,32.89
2022-08-28T07:09:59.288Z,33.00
2022-08-28T07:12:26.707Z,33.04
2022-08-28T07:14:54.354Z,33.40
2022-08-28T07:17:21.615Z,33.60
2022-08-28T07:19:48.866Z,34.33
2022-08-28T07:22:16.103Z,34.20
2022-08-28T07:24:43.479Z,34.45
2022-08-28T07:27:10.614Z,34.42
2022-08-28T07:29:42.996Z,34.46
2022-08-28T07:32:10.318Z,35.25
2022-08-28T07:34:40.821Z,36.01
2022-08-28T07:37:11.112Z,36.22
2022-08-28T07:39:41.905Z,35.31
2022-08-28T07:42:09.888Z,35.04
2022-08-28T07:44:50.560Z,34.21
2022-08-28T07:47:19.085Z,34.05
2022-08-28T07:49:46.349Z,33.82
2022-08-28T07:52:13.635Z,33.31
2022-08-28T07:54:41.089Z,33.34
2022-08-28T07:57:10.561Z,33.18
2022-08-28T07:59:38.493Z,33.15
2022-08-28T08:02:07.271Z,33.91
2022-08-28T08:04:36.593Z,34.09
2022-08-28T08:07:04.791Z,34.23
2022-08-28T08:09:32.438Z,34.62
2022-08-28T08:12:00.257Z,35.09
2022-08-28T08:14:27.772Z,35.20
2022-08-28T08:16:55.044Z,34.75
2022-08-28T08:19:22.368Z,34.74
2022-08-28T08:21:53.094Z,35.14
2022-08-28T08:24:26.519Z,35.59
2022-08-28T08:27:00.121Z,34.86
2022-08-28T08:29:36.107Z,35.08
2022-08-28T08:32:08.091Z,34.08
2022-08-28T08:34:38.899Z,34.00
2022-08-28T08:37:07.098Z,33.43
2022-08-28T08:39:36.205Z,34.00
2022-08-28T08:42:06.543Z,34.09
2022-08-28T08:44:40.616Z,33.01
2022-08-28T08:47:19.975Z,31.08
2022-08-28T08:49:59.100Z,30.61
2022-08-28T08:52:38.942Z,30.46
2022-08-28T08:55:16.381Z,30.90
2022-08-28T08:57:49.354Z,30.30
2022-08-28T09:00:18.098Z,30.39
2022-08-28T09:03:04.450Z,29.92
2022-08-28T09:05:47.296Z,30.23
2022-08-28T09:08:25.753Z,30.44
2022-08-28T09:11:07.463Z,30.93
2022-08-28T09:13:50.517Z,29.92
2022-08-28T09:16:27.149Z,28.75
2022-08-28T09:18:57.680Z,28.35
2022-08-28T09:21:32.450Z,27.82
2022-08-28T09:24:05.709Z,27.70
2022-08-28T09:26:34.936Z,27.53
2022-08-28T09:29:06.244Z,26.81
2022-08-28T09:31:37.507Z,27.27
2022-08-28T09:34:38.154Z,26.17
2022-08-28T09:37:08.517Z,25.84
2022-08-28T09:39:38.908Z,25.85
2022-08-28T09:42:27.748Z,25.74
2022-08-28T09:45:18.853Z,23.59
2022-08-28T09:47:50.827Z,24.27
2022-08-28T09:50:24.457Z,23.03
2022-08-28T09:52:54.115Z,23.23
2022-08-28T09:55:43.405Z,22.39
2022-08-28T09:58:10.887Z,21.59
2022-08-28T10:00:43.512Z,21.82
2022-08-28T10:03:31.044Z,22.27
2022-08-28T10:06:33.195Z,22.38
2022-08-28T10:09:18.123Z,21.78
2022-08-28T10:11:51.488Z,21.94
2022-08-28T10:14:41.318Z,20.92
2022-08-28T10:17:21.693Z,21.49
2022-08-28T10:20:08.978Z,20.61
2022-08-28T10:23:02.771Z,20.98
2022-08-28T10:25:59.388Z,18.85
2022-08-28T10:29:08.247Z,20.38
2022-08-28T10:32:18.521Z,19.61
2022-08-28T10:34:51.878Z,19.40
2022-08-28T10:37:45.246Z,18.96
2022-08-28T10:40:28.643Z,18.48
2022-08-28T10:43:01.046Z,18.60
2022-08-28T10:45:30.546Z,19.00
2022-08-28T10:48:20.165Z,18.81
2022-08-28T10:50:58.553Z,19.00
2022-08-28T10:53:38.624Z,19.58
2022-08-28T10:56:13.482Z,19.42
2022-08-28T10:58:41.125Z,20.26
2022-08-28T11:01:27.280Z,20.86
2022-08-28T11:03:57.457Z,20.54
2022-08-28T11:06:41.743Z,21.33
2022-08-28T11:09:34.677Z,21.44
2022-08-28T11:12:03.707Z,21.22
2022-08-28T11:14:48.297Z,20.35
2022-08-28T11:17:22.063Z,19.89
2022-08-28T11:20:04.490Z,19.99
2022-08-28T11:22:40.653Z,20.05
2022-08-28T11:25:58.544Z,20.91
2022-08-28T11:28:26.300Z,21.11
2022-08-28T11:31:05.642Z,21.22
2022-08-28T11:33:53.232Z,22.10
2022-08-28T11:36:25.556Z,21.69
2022-08-28T11:38:56.008Z,21.92
2022-08-28T11:41:32.671Z,22.02
2022-08-28T11:44:13.900Z,21.35
2022-08-28T11:46:45.690Z,21.54
2022-08-28T11:49:26.473Z,20.90
2022-08-28T11:52:02.713Z,21.25
2022-08-28T11:54:57.835Z,20.76
2022-08-28T11:57:44.039Z,20.76
2022-08-28T12:00:40.634Z,21.17
2022-08-28T12:03:16.923Z,20.98
2022-08-28T12:05:50.871Z,21.01
2022-08-28T12:08:49.017Z,21.11
2022-08-28T12:11:41.055Z,21.46
2022-08-28T12:14:28.496Z,21.21
2022-08-28T12:16:58.715Z,21.10
2022-08-28T12:19:35.282Z,20.93
2022-08-28T12:22:21.582Z,20.47
2022-08-28T12:24:59.599Z,20.62
2022-08-28T12:27:28.936Z,20.82
2022-08-28T12:29:59.094Z,20.97
2022-08-28T12:32:41.183Z,19.69
2022-08-28T12:35:19.608Z,20.12
2022-08-28T12:37:51.543Z,20.08
2022-08-28T12:40:50.611Z,20.04
2022-08-28T12:43:31.446Z,20.66
2022-08-28T12:46:04.319Z,20.67
2022-08-28T12:49:00.203Z,21.30
2022-08-28T12:51:33.966Z,21.32
2022-08-28T12:54:05.453Z,21.41
2022-08-28T12:56:36.269Z,21.43
2022-08-28T12:59:33.360Z,21.85
2022-08-28T13:02:10.613Z,22.29
2022-08-28T13:04:42.466Z,22.26
2022-08-28T13:07:14.074Z,22.34
2022-08-28T13:09:50.406Z,22.21
2022-08-28T13:12:55.359Z,21.96
2022-08-28T13:15:49.693Z,21.79
2022-08-28T13:18:35.679Z,21.54
2022-08-28T13:21:30.791Z,21.25
2022-08-28T13:24:22.301Z,21.82
2022-08-28T13:27:20.998Z,20.84
2022-08-28T13:30:10.195Z,21.11
2022-08-28T13:32:39.955Z,21.78
2022-08-28T13:35:14.400Z,21.81
2022-08-28T13:37:45.610Z,21.42
2022-08-28T13:40:36.892Z,21.81
2022-08-28T13:43:07.241Z,21.96
2022-08-28T13:45:43.496Z,22.00
2022-08-28T13:48:16.811Z,21.40
2022-08-28T13:50:47.590Z,21.04
2022-08-28T13:53:46.791Z,21.63
2022-08-28T13:56:14.000Z,21.48
2022-08-28T13:58:41.202Z,21.82
2022-08-28T14:01:08.666Z,21.70
2022-08-28T14:03:36.385Z,22.25
2022-08-28T14:06:12.742Z,22.28
2022-08-28T14:08:45.245Z,22.37
2022-08-28T14:11:15.388Z,22.61
2022-08-28T14:13:47.115Z,22.92
2022-08-28T14:16:24.419Z,22.99
2022-08-28T14:18:53.093Z,23.26
2022-08-28T14:21:20.949Z,23.16
2022-08-28T14:23:48.228Z,23.48
2022-08-28T14:26:15.284Z,23.59
2022-08-28T14:28:42.910Z,24.31
2022-08-28T14:31:14.447Z,24.23
2022-08-28T14:33:45.729Z,24.57
2022-08-28T14:36:26.219Z,24.59
2022-08-28T14:38:54.616Z,24.92
2022-08-28T14:41:23.551Z,24.81
2022-08-28T14:43:55.904Z,25.55
2022-08-28T14:46:31.345Z,26.05
2022-08-28T14:49:01.065Z,25.98
2022-08-28T14:51:31.724Z,26.21
2022-08-28T14:54:00.613Z,26.38
2022-08-28T14:56:29.188Z,26.31
2022-08-28T14:59:01.150Z,26.48
2022-08-28T15:01:40.622Z,26.61
2022-08-28T15:04:12.096Z,26.82
2022-08-28T15:06:40.676Z,26.74
2022-08-28T15:09:09.792Z,26.59
2022-08-28T15:11:37.649Z,27.00
2022-08-28T15:14:06.597Z,27.15
2022-08-28T15:16:36.531Z,27.27
2022-08-28T15:19:04.407Z,27.32
2022-08-28T15:21:38.540Z,27.81
2022-08-28T15:24:07.723Z,27.87
2022-08-28T15:26:34.932Z,27.34
2022-08-28T15:29:02.558Z,28.23
2022-08-28T15:31:34.747Z,28.83
2022-08-28T15:34:13.686Z,28.62
2022-08-28T15:36:42.742Z,28.86
2022-08-28T15:39:29.408Z,28.83
2022-08-28T15:41:57.474Z,27.61
2022-08-28T15:44:25.380Z,27.47
2022-08-28T15:47:05.061Z,27.25
2022-08-28T15:49:38.813Z,27.33
2022-08-28T15:52:13.939Z,27.42
2022-08-28T15:54:42.109Z,27.63
2022-08-28T15:57:09.265Z,27.35
2022-08-28T15:59:39.977Z,27.31
2022-08-28T16:02:19.637Z,27.76
2022-08-28T16:04:47.345Z,27.70
2022-08-28T16:07:14.977Z,27.96
2022-08-28T16:09:42.151Z,28.03
2022-08-28T16:12:09.497Z,28.00
2022-08-28T16:14:39.584Z,28.21
2022-08-28T16:17:11.072Z,28.04
2022-08-28T16:19:40.086Z,28.66
2022-08-28T16:22:08.268Z,28.68
2022-08-28T16:24:35.964Z,28.99
2022-08-28T16:27:03.188Z,29.30
2022-08-28T16:29:30.327Z,28.98
2022-08-28T16:31:57.484Z,29.31
2022-08-28T16:34:30.804Z,29.10
2022-08-28T16:36:59.933Z,29.94
2022-08-28T16:39:27.714Z,29.81
2022-08-28T16:41:55.550Z,30.11
2022-08-28T16:44:26.303Z,30.17
2022-08-28T16:46:53.782Z,30.99
2022-08-28T16:49:21.723Z,30.28
2022-08-28T16:51:48.913Z,30.24
2022-08-28T16:54:18.451Z,30.27
2022-08-28T16:56:46.337Z,30.20
2022-08-28T16:59:21.526Z,30.06
2022-08-28T17:01:53.788Z,30.32
2022-08-28T17:04:22.116Z,30.41
2022-08-28T17:06:49.465Z,30.30
2022-08-28T17:09:16.632Z,30.16
2022-08-28T17:11:52.173Z,29.96
2022-08-28T17:14:23.822Z,30.33
2022-08-28T17:16:52.511Z,29.89
2022-08-28T17:19:21.097Z,30.62
2022-08-28T17:22:06.882Z,30.67
2022-08-28T17:24:36.995Z,30.92
2022-08-28T17:27:05.914Z,30.68
2022-08-28T17:29:38.550Z,30.62
2022-08-28T17:32:07.999Z,30.85
2022-08-28T17:34:37.376Z,30.89
2022-08-28T17:37:05.742Z,31.02
2022-08-28T17:39:33.119Z,30.87
2022-08-28T17:42:00.298Z,31.28
2022-08-28T17:44:27.968Z,30.93
2022-08-28T17:46:55.108Z,31.25
2022-08-28T17:49:22.834Z,31.71
2022-08-28T17:51:50.151Z,31.62
2022-08-28T17:54:21.927Z,31.79
2022-08-28T17:56:49.713Z,32.28
2022-08-28T17:59:17.443Z,31.95
2022-08-28T18:01:45.375Z,32.13
2022-08-28T18:04:14.706Z,32.71
2022-08-28T18:06:41.884Z,32.69
2022-08-28T18:09:10.100Z,32.46
2022-08-28T18:11:37.973Z,32.93
2022-08-28T18:14:06.552Z,32.78
2022-08-28T18:16:35.375Z,33.23
2022-08-28T18:19:05.157Z,32.95
2022-08-28T18:21:32.414Z,33.26
2022-08-28T18:24:02.087Z,33.33
2022-08-28T18:26:29.773Z,33.19
2022-08-28T18:28:57.657Z,33.49
2022-08-28T18:31:25.387Z,33.89
2022-08-28T18:33:54.437Z,33.84
2022-08-28T18:36:23.391Z,33.82
2022-08-28T18:38:51.392Z,33.96
2022-08-28T18:41:20.199Z,34.18
2022-08-28T18:43:48.279Z,34.44
2022-08-28T18:46:16.034Z,34.85
2022-08-28T18:48:43.282Z,34.95
2022-08-28T18:51:12.537Z,34.94
2022-08-28T18:53:43.276Z,35.20
2022-08-28T18:56:10.623Z,35.60
2022-08-28T18:58:40.844Z,35.80
2022-08-28T19:01:09.479Z,35.58
2022-08-28T19:03:37.204Z,36.07
2022-08-28T19:06:07.036Z,35.81
2022-08-28T19:08:36.792Z,35.97
2022-08-28T19:11:14.198Z,36.56
2022-08-28T19:13:41.940Z,36.43
2022-08-28T19:16:09.837Z,36.32
2022-08-28T19:18:37.173Z,36.52
2022-08-28T19:21:10.537Z,37.06
2022-08-28T19:23:47.545Z,37.13
2022-08-28T19:26:23.353Z,36.62
2022-08-28T19:28:50.826Z,36.79
2022-08-28T19:31:18.540Z,36.86
2022-08-28T19:33:47.348Z,37.10
2022-08-28T19:36:14.841Z,37.32
2022-08-28T19:38:43.097Z,37.03
2022-08-28T19:41:11.873Z,37.24
2022-08-28T19:43:43.140Z,37.45
2022-08-28T19:46:20.177Z,37.55
2022-08-28T19:48:52.966Z,37.88
2022-08-28T19:51:23.368Z,37.80
2022-08-28T19:53:58.447Z,38.08
2022-08-28T19:56:33.397Z,38.26
2022-08-28T19:59:02.775Z,38.12
2022-08-28T20:01:33.073Z,38.15
2022-08-28T20:04:20.600Z,38.38
2022-08-28T20:06:48.205Z,38.34
2022-08-28T20:09:16.432Z,38.38
2022-08-28T20:11:47.120Z,38.57
2022-08-28T20:14:16.119Z,38.60
2022-08-28T20:16:45.051Z,38.54
2022-08-28T20:19:13.047Z,38.87
2022-08-28T20:21:44.297Z,39.33
2022-08-28T20:24:17.800Z,39.36
2022-08-28T20:26:45.353Z,39.11
2022-08-28T20:29:13.918Z,39.45
2022-08-28T20:31:44.115Z,39.35
2022-08-28T20:34:12.961Z,39.61
2022-08-28T20:36:40.503Z,39.60
2022-08-28T20:39:09.566Z,39.66
2022-08-28T20:41:39.739Z,39.76
2022-08-28T20:44:10.462Z,40.37
2022-08-28T20:46:41.342Z,39.95
2022-08-28T20:49:14.186Z,40.41
2022-08-28T20:51:59.037Z,40.09
2022-08-28T20:54:46.249Z,41.11
2022-08-28T20:57:17.818Z,40.57
2022-08-28T20:59:46.479Z,40.55
2022-08-28T21:02:17.742Z,41.02
2022-08-28T21:04:46.665Z,40.89
2022-08-28T21:07:16.122Z,41.26
2022-08-28T21:10:05.568Z,40.97
2022-08-28T21:12:30.932Z,41.18
2022-08-28T21:14:58.901Z,41.18
2022-08-28T21:17:29.796Z,41.43
2022-08-28T21:20:00.793Z,41.67
2022-08-28T21:22:29.776Z,41.81
2022-08-28T21:24:57.326Z,42.12
2022-08-28T21:27:25.207Z,41.85
2022-08-28T21:29:56.315Z,42.12
2022-08-28T21:32:23.936Z,42.33
2022-08-28T21:34:52.680Z,42.54
2022-08-28T21:37:20.236Z,42.76
2022-08-28T21:39:47.602Z,42.73
2022-08-28T21:42:14.848Z,43.36
2022-08-28T21:44:48.657Z,43.15
2022-08-28T21:47:20.210Z,43.27
2022-08-28T21:49:52.588Z,44.26
2022-08-28T21:52:22.032Z,43.80
2022-08-28T21:54:50.072Z,43.53
2022-08-28T21:57:18.677Z,44.00
2022-08-28T21:59:45.878Z,44.32
2022-08-28T22:02:13.061Z,44.11
2022-08-28T22:04:40.674Z,43.89
2022-08-28T22:07:09.967Z,44.32
2022-08-28T22:09:38.659Z,44.43
2022-08-28T22:12:06.177Z,44.50
2022-08-28T22:14:33.694Z,44.37
2022-08-28T22:17:01.167Z,44.92
2022-08-28T22:19:28.902Z,44.53
2022-08-28T22:22:14.499Z,44.80
2022-08-28T22:24:42.164Z,44.64
2022-08-28T22:27:13.619Z,44.79
2022-08-28T22:29:41.477Z,44.71
2022-08-28T22:32:09.257Z,45.08
2022-08-28T22:34:45.521Z,45.61
2022-08-28T22:37:13.626Z,45.16
2022-08-28T22:39:41.778Z,45.56
2022-08-28T22:42:10.309Z,45.85
2022-08-28T22:44:38.927Z,45.51
2022-08-28T22:47:06.871Z,45.37
2022-08-28T22:49:34.879Z,45.78
2022-08-28T22:52:10.477Z,46.00
2022-08-28T22:54:38.945Z,45.91
2022-08-28T22:57:06.519Z,45.65
2022-08-28T22:59:34.795Z,46.40
2022-08-28T23:02:03.437Z,45.79
2022-08-28T23:04:32.923Z,46.49
2022-08-28T23:07:00.761Z,46.47
2022-08-28T23:09:28.040Z,45.90
2022-08-28T23:11:55.299Z,46.15
2022-08-28T23:14:28.642Z,46.13
2022-08-28T23:16:56.175Z,46.64
2022-08-28T23:19:23.981Z,46.78
2022-08-28T23:21:51.628Z,46.61
2022-08-28T23:24:19.293Z,46.90
2022-08-28T23:26:47.028Z,46.90
2022-08-28T23:29:15.103Z,46.79
2022-08-28T23:31:42.555Z,47.02
2022-08-28T23:34:16.345Z,47.16
2022-08-28T23:36:44.563Z,46.73
2022-08-28T23:39:12.021Z,46.79
2022-08-28T23:41:40.091Z,46.44
2022-08-28T23:44:09.367Z,46.86
2022-08-28T23:46:37.217Z,46.23
2022-08-28T23:49:10.000Z,46.60
2022-08-28T23:51:37.622Z,46.31
2022-08-28T23:54:05.797Z,46.56
2022-08-28T23:56:33.734Z,46.74
2022-08-28T23:59:01.167Z,47.03
